Time;durP1;ratioP1;P1;durP2;ratioP2;P2;SDS_P1;SDS_P2;PMS_P1;PMS_P2;Temp;Humidity;BMP_temperature;BMP_pressure;BME280_temperature;BME280_humidity;BME280_pressure;Samples;Min_cycle;Max_cycle;Signal;HPM_P1;HPM_P2
2021/12/16 00:02:53;;;;;;;32.42;13.30;;;;;;;;;;5054127;28;20078;-74
2021/12/16 00:05:30;;;;;;;36.25;12.30;;;;;;;;;;5053935;28;20029;-73
2021/12/16 00:08:15;;;;;;;32.78;13.27;;;;;;;;;;5067572;28;20016;-73
2021/12/16 00:10:54;;;;;;;32.70;13.00;;;;;;;;;;5070881;28;20036;-74
2021/12/16 00:34:54;;;;;;;48.08;16.95;;;;;;;;;;5052767;28;20087;-73
2021/12/16 00:37:19;;;;;;;49.55;16.90;;;;;;;;;;5069271;28;20033;-74
2021/12/16 00:39:45;;;;;;;45.88;16.95;;;;;;;;;;5069393;28;20371;-73
2021/12/16 00:42:26;;;;;;;39.50;15.52;;;;;;;;;;5053749;28;20033;-74
2021/12/16 00:45:10;;;;;;;34.60;14.25;;;;;;;;;;5053433;28;20033;-73
2021/12/16 00:47:49;;;;;;;32.67;13.00;;;;;;;;;;5053275;28;20416;-74
2021/12/16 00:54:09;;;;;;;36.15;13.32;;;;;;;;;;5067420;28;20048;-73
2021/12/16 00:55:55;;;;;;;28.13;11.45;;;;;;;;;;5066752;28;20499;-73
2021/12/16 00:58:24;;;;;;;30.40;12.10;;;;;;;;;;5052171;28;20025;-73
2021/12/16 01:09:03;;;;;;;32.05;12.35;;;;;;;;;;5072832;28;20036;-73
2021/12/16 01:41:44;;;;;;;40.55;15.05;;;;;;;;;;5071016;28;20426;-73
2021/12/16 01:52:02;;;;;;;41.92;14.23;;;;;;;;;;5055615;28;20035;-73
2021/12/16 01:54:41;;;;;;;45.60;16.38;;;;;;;;;;5069144;28;20040;-74
2021/12/16 01:57:17;;;;;;;45.00;16.52;;;;;;;;;;5056926;28;20040;-73
2021/12/16 01:59:46;;;;;;;44.83;14.40;;;;;;;;;;5039619;28;20483;-74
2021/12/16 02:02:36;;;;;;;48.42;16.30;;;;;;;;;;5055112;28;20547;-73
2021/12/16 02:10:21;;;;;;;46.40;15.98;;;;;;;;;;5056211;28;20060;-73
2021/12/16 02:34:22;;;;;;;46.58;16.73;;;;;;;;;;5055700;28;20059;-73
2021/12/16 02:36:47;;;;;;;44.85;17.52;;;;;;;;;;5039273;28;20432;-73
2021/12/16 02:39:19;;;;;;;53.60;18.63;;;;;;;;;;5039428;28;20072;-73
2021/12/16 02:41:45;;;;;;;53.05;18.60;;;;;;;;;;5070418;28;20106;-73
2021/12/16 02:44:19;;;;;;;45.85;17.70;;;;;;;;;;5054574;28;20376;-73
2021/12/16 02:49:32;;;;;;;49.00;18.55;;;;;;;;;;5068419;28;20036;-72
2021/12/16 02:51:57;;;;;;;48.70;18.10;;;;;;;;;;5054456;28;20383;-73
2021/12/16 02:54:24;;;;;;;50.63;17.58;;;;;;;;;;5053819;28;20117;-73
2021/12/16 02:56:49;;;;;;;46.00;17.08;;;;;;;;;;5070716;28;20024;-73
2021/12/16 02:59:18;;;;;;;45.03;16.23;;;;;;;;;;5056015;28;20432;-73
2021/12/16 03:01:50;;;;;;;45.17;17.45;;;;;;;;;;5070356;28;20448;-73
2021/12/16 03:04:16;;;;;;;49.55;17.05;;;;;;;;;;5070357;28;20032;-73
2021/12/16 03:06:43;;;;;;;43.15;16.60;;;;;;;;;;5070527;28;20032;-73
2021/12/16 03:09:10;;;;;;;42.47;16.58;;;;;;;;;;5054809;28;20115;-74
2021/12/16 03:14:41;;;;;;;54.28;17.73;;;;;;;;;;5016902;28;20037;-74
2021/12/16 03:22:05;;;;;;;48.22;16.95;;;;;;;;;;5055200;28;20441;-73
2021/12/16 03:30:16;;;;;;;43.58;16.30;;;;;;;;;;5054755;28;20024;-73
2021/12/16 03:38:05;;;;;;;56.38;19.30;;;;;;;;;;5070429;28;20051;-74
2021/12/16 03:40:31;;;;;;;47.97;18.58;;;;;;;;;;5055746;28;20028;-73
2021/12/16 03:43:09;;;;;;;49.28;17.30;;;;;;;;;;5069973;28;20025;-74
2021/12/16 03:48:37;;;;;;;54.83;18.33;;;;;;;;;;5054415;28;20040;-73
2021/12/16 03:51:14;;;;;;;51.78;19.02;;;;;;;;;;5053407;28;20032;-73
2021/12/16 03:53:42;;;;;;;52.63;18.55;;;;;;;;;;5068461;28;20111;-73
2021/12/16 03:56:07;;;;;;;54.40;19.58;;;;;;;;;;5053132;28;20025;-74
2021/12/16 03:58:33;;;;;;;56.42;19.23;;;;;;;;;;5071512;28;20036;-73
2021/12/16 04:01:00;;;;;;;54.40;18.88;;;;;;;;;;5069732;28;20478;-75
2021/12/16 04:03:26;;;;;;;52.08;18.58;;;;;;;;;;5054108;28;20474;-73
2021/12/16 04:05:51;;;;;;;55.53;18.92;;;;;;;;;;5069598;28;20028;-74
2021/12/16 04:08:17;;;;;;;52.83;18.35;;;;;;;;;;5052752;28;20466;-74
2021/12/16 04:10:47;;;;;;;50.97;17.83;;;;;;;;;;5053110;28;20028;-73
2021/12/16 04:13:15;;;;;;;49.00;17.63;;;;;;;;;;5069016;28;20027;-74
2021/12/16 04:15:40;;;;;;;59.10;19.75;;;;;;;;;;5056452;28;20025;-74
2021/12/16 04:18:06;;;;;;;56.47;20.88;;;;;;;;;;5054229;28;20035;-74
2021/12/16 04:20:31;;;;;;;62.70;19.80;;;;;;;;;;5069590;28;20479;-74
2021/12/16 04:22:58;;;;;;;61.40;20.92;;;;;;;;;;5054022;28;20071;-74
2021/12/16 04:25:27;;;;;;;59.92;20.95;;;;;;;;;;5053969;28;20025;-75
2021/12/16 04:27:54;;;;;;;62.63;22.20;;;;;;;;;;5069497;28;20021;-74
2021/12/16 04:30:21;;;;;;;63.50;22.00;;;;;;;;;;5069272;28;20021;-74
2021/12/16 04:32:47;;;;;;;65.55;22.92;;;;;;;;;;5069264;28;20448;-74
2021/12/16 04:35:12;;;;;;;72.88;24.25;;;;;;;;;;5055457;28;20082;-75
2021/12/16 04:37:38;;;;;;;79.70;28.67;;;;;;;;;;5073537;28;20106;-74
2021/12/16 04:40:07;;;;;;;70.07;25.30;;;;;;;;;;5057821;28;20037;-74
2021/12/16 04:42:33;;;;;;;68.18;23.52;;;;;;;;;;5056847;28;20479;-75
2021/12/16 04:44:58;;;;;;;72.80;25.35;;;;;;;;;;5056707;28;20029;-75
2021/12/16 04:47:24;;;;;;;65.40;23.55;;;;;;;;;;5057717;28;20029;-75
2021/12/16 04:49:50;;;;;;;58.13;21.63;;;;;;;;;;5073241;28;20028;-75
2021/12/16 04:52:17;;;;;;;69.78;23.88;;;;;;;;;;5073107;28;20021;-75
2021/12/16 04:54:43;;;;;;;70.75;22.80;;;;;;;;;;5073003;28;20035;-74
2021/12/16 04:57:09;;;;;;;75.88;25.63;;;;;;;;;;5074489;28;20029;-73
2021/12/16 04:59:35;;;;;;;82.03;28.42;;;;;;;;;;5057614;28;20472;-73
2021/12/16 05:02:04;;;;;;;76.07;27.00;;;;;;;;;;5057538;28;20108;-73
2021/12/16 05:04:29;;;;;;;77.57;27.45;;;;;;;;;;5056215;28;20053;-73
2021/12/16 05:06:55;;;;;;;79.28;26.77;;;;;;;;;;5057431;28;20052;-72
2021/12/16 05:12:06;;;;;;;68.88;24.65;;;;;;;;;;5070484;28;20079;-76
2021/12/16 05:14:32;;;;;;;70.78;24.05;;;;;;;;;;5063894;28;20064;-76
2021/12/16 05:16:58;;;;;;;63.67;22.27;;;;;;;;;;5078583;28;20041;-76
2021/12/16 05:19:23;;;;;;;51.60;18.92;;;;;;;;;;5072705;28;20418;-76
2021/12/16 05:21:58;;;;;;;49.40;18.20;;;;;;;;;;5057219;28;20432;-76
2021/12/16 05:24:27;;;;;;;52.92;17.83;;;;;;;;;;5056986;28;20456;-74
2021/12/16 05:27:07;;;;;;;46.85;18.60;;;;;;;;;;5072112;28;20032;-76
2021/12/16 05:29:33;;;;;;;50.28;18.08;;;;;;;;;;5057032;28;20052;-77
2021/12/16 05:31:58;;;;;;;48.95;17.40;;;;;;;;;;5056919;28;20068;-76
2021/12/16 05:34:24;;;;;;;53.45;18.00;;;;;;;;;;5061274;28;20015;-76
2021/12/16 05:36:49;;;;;;;48.28;17.88;;;;;;;;;;5060650;28;20025;-77
2021/12/16 05:39:15;;;;;;;47.88;18.40;;;;;;;;;;5055494;28;20033;-77
2021/12/16 05:41:41;;;;;;;46.10;18.40;;;;;;;;;;5071591;28;20028;-77
2021/12/16 05:44:06;;;;;;;53.13;19.42;;;;;;;;;;5054469;28;20025;-77
2021/12/16 05:46:32;;;;;;;56.25;21.00;;;;;;;;;;5071272;28;20032;-78
2021/12/16 05:48:58;;;;;;;55.20;20.25;;;;;;;;;;5059475;28;20126;-77
2021/12/16 05:51:28;;;;;;;48.53;18.33;;;;;;;;;;5063391;28;20025;-78
2021/12/16 05:53:53;;;;;;;56.20;17.75;;;;;;;;;;5055973;28;20033;-75
2021/12/16 05:56:21;;;;;;;51.08;19.88;;;;;;;;;;5056079;28;20108;-76
2021/12/16 05:58:47;;;;;;;50.53;19.90;;;;;;;;;;5032757;28;20067;-77
2021/12/16 06:01:16;;;;;;;52.38;20.55;;;;;;;;;;5046971;28;20064;-77
2021/12/16 06:03:43;;;;;;;57.78;21.67;;;;;;;;;;5045987;28;20043;-77
2021/12/16 06:06:10;;;;;;;55.53;20.92;;;;;;;;;;5051485;28;20033;-78
2021/12/16 06:08:35;;;;;;;53.42;21.27;;;;;;;;;;5055888;28;20104;-81
2021/12/16 06:11:15;;;;;;;70.32;28.70;;;;;;;;;;5068760;28;20133;-78
2021/12/16 06:13:47;;;;;;;54.88;21.73;;;;;;;;;;5046947;28;20071;-78
2021/12/16 06:27:13;;;;;;;60.38;21.48;;;;;;;;;;5055674;28;20074;-77
2021/12/16 06:29:40;;;;;;;76.82;24.10;;;;;;;;;;5051341;28;20128;-73
2021/12/16 06:32:06;;;;;;;80.20;26.27;;;;;;;;;;5068363;28;20036;-74
2021/12/16 06:34:32;;;;;;;83.10;28.45;;;;;;;;;;5052895;28;20033;-76
2021/12/16 06:36:58;;;;;;;81.38;28.30;;;;;;;;;;5061467;28;20424;-74
2021/12/16 06:39:27;;;;;;;95.78;33.63;;;;;;;;;;5069508;28;20045;-75
2021/12/16 06:41:54;;;;;;;83.03;30.45;;;;;;;;;;5054063;28;20128;-74
2021/12/16 06:46:48;;;;;;;66.07;25.05;;;;;;;;;;5051712;28;20606;-77
2021/12/16 06:49:17;;;;;;;67.85;23.00;;;;;;;;;;5034401;28;20151;-78
2021/12/16 06:51:50;;;;;;;65.78;24.73;;;;;;;;;;5054255;28;20377;-79
2021/12/16 06:57:15;;;;;;;65.43;25.23;;;;;;;;;;5054376;28;20481;-76
2021/12/16 06:59:51;;;;;;;60.45;22.40;;;;;;;;;;5053522;28;20025;-75
2021/12/16 07:02:41;;;;;;;73.85;28.38;;;;;;;;;;5053661;28;20025;-75
2021/12/16 07:05:03;;;;;;;57.90;21.85;;;;;;;;;;5054201;28;20412;-75
2021/12/16 07:07:29;;;;;;;53.80;22.45;;;;;;;;;;5053077;28;20032;-73
2021/12/16 07:09:54;;;;;;;58.95;22.80;;;;;;;;;;5053859;28;20040;-76
2021/12/16 07:12:26;;;;;;;55.75;22.65;;;;;;;;;;5053839;28;20096;-74
2021/12/16 07:14:51;;;;;;;63.28;23.05;;;;;;;;;;5067944;28;20055;-78
2021/12/16 07:17:17;;;;;;;70.63;30.00;;;;;;;;;;5053945;28;20045;-77
2021/12/16 07:19:43;;;;;;;94.85;36.30;;;;;;;;;;5055171;28;20441;-73
2021/12/16 07:22:09;;;;;;;69.88;26.90;;;;;;;;;;5041569;28;20044;-76
2021/12/16 07:24:35;;;;;;;82.90;34.33;;;;;;;;;;5051213;28;20067;-77
2021/12/16 07:27:00;;;;;;;71.38;27.88;;;;;;;;;;5037595;28;20040;-75
2021/12/16 07:29:27;;;;;;;59.97;24.38;;;;;;;;;;5066888;28;20040;-77
2021/12/16 07:31:53;;;;;;;72.28;27.10;;;;;;;;;;5065470;28;20151;-76
2021/12/16 07:34:19;;;;;;;76.63;29.60;;;;;;;;;;5070861;28;20036;-74
2021/12/16 07:36:45;;;;;;;82.85;30.80;;;;;;;;;;5057650;28;20028;-75
2021/12/16 07:39:12;;;;;;;66.28;28.25;;;;;;;;;;5066372;28;20033;-76
2021/12/16 07:41:40;;;;;;;72.18;30.95;;;;;;;;;;5052297;28;20515;-77
2021/12/16 07:44:09;;;;;;;62.60;26.42;;;;;;;;;;5062204;28;20460;-76
2021/12/16 07:46:50;;;;;;;67.63;25.50;;;;;;;;;;5046784;28;20053;-76
2021/12/16 07:49:19;;;;;;;70.72;26.27;;;;;;;;;;5034965;28;20037;-78
2021/12/16 07:51:47;;;;;;;78.97;31.03;;;;;;;;;;5053553;28;20012;-76
2021/12/16 07:54:13;;;;;;;56.28;22.58;;;;;;;;;;5049560;28;20131;-76
2021/12/16 07:56:39;;;;;;;60.17;23.35;;;;;;;;;;5028775;28;20025;-74
2021/12/16 07:59:05;;;;;;;66.93;27.27;;;;;;;;;;5046430;28;20032;-75
2021/12/16 08:01:30;;;;;;;63.03;26.92;;;;;;;;;;5045985;28;20632;-75
2021/12/16 08:03:56;;;;;;;64.35;26.33;;;;;;;;;;5023341;28;20035;-77
2021/12/16 08:06:23;;;;;;;59.40;24.80;;;;;;;;;;5027209;28;20028;-75
2021/12/16 08:08:57;;;;;;;58.90;22.60;;;;;;;;;;5045213;28;20044;-75
2021/12/16 08:11:24;;;;;;;49.17;22.05;;;;;;;;;;5043123;28;20033;-74
2021/12/16 08:13:49;;;;;;;56.90;22.73;;;;;;;;;;5043935;28;20075;-75
2021/12/16 08:16:16;;;;;;;46.55;19.67;;;;;;;;;;5046264;28;20064;-75
2021/12/16 08:18:42;;;;;;;46.28;19.13;;;;;;;;;;5038664;28;20056;-74
2021/12/16 08:21:08;;;;;;;51.13;20.02;;;;;;;;;;5038232;28;20448;-73
2021/12/16 08:23:33;;;;;;;50.53;20.58;;;;;;;;;;5045849;28;20165;-76
2021/12/16 08:25:59;;;;;;;51.38;21.63;;;;;;;;;;5043122;28;20132;-74
2021/12/16 08:28:28;;;;;;;53.00;19.55;;;;;;;;;;5045836;28;20037;-75
2021/12/16 08:30:53;;;;;;;54.75;20.50;;;;;;;;;;5050825;28;20033;-75
2021/12/16 08:33:22;;;;;;;59.13;22.77;;;;;;;;;;5030862;28;20509;-71
2021/12/16 08:35:52;;;;;;;53.38;22.73;;;;;;;;;;5065860;28;20045;-73
2021/12/16 08:38:21;;;;;;;53.13;21.80;;;;;;;;;;5044989;28;20021;-74
2021/12/16 08:40:47;;;;;;;103.97;51.38;;;;;;;;;;5047845;28;20087;-73
2021/12/16 08:43:13;;;;;;;52.63;21.63;;;;;;;;;;5029790;28;20036;-73
2021/12/16 08:45:39;;;;;;;50.50;20.20;;;;;;;;;;5047753;28;20120;-75
2021/12/16 08:48:05;;;;;;;42.63;19.48;;;;;;;;;;5048998;28;20116;-77
2021/12/16 08:50:32;;;;;;;41.13;17.20;;;;;;;;;;5058794;28;20433;-76
2021/12/16 08:52:59;;;;;;;39.60;17.02;;;;;;;;;;5049209;28;20116;-78
2021/12/16 08:55:25;;;;;;;44.45;18.42;;;;;;;;;;5060451;28;20026;-76
2021/12/16 08:57:50;;;;;;;41.13;16.73;;;;;;;;;;5021960;28;20044;-79
2021/12/16 09:00:20;;;;;;;45.67;19.38;;;;;;;;;;5017192;28;20056;-77
2021/12/16 09:02:46;;;;;;;51.80;24.73;;;;;;;;;;5047962;28;20021;-78
2021/12/16 09:05:16;;;;;;;50.08;22.38;;;;;;;;;;5043064;28;20047;-78
2021/12/16 09:07:45;;;;;;;49.13;21.92;;;;;;;;;;5061510;28;20085;-77
2021/12/16 09:10:12;;;;;;;45.20;18.75;;;;;;;;;;5048777;28;20105;-78
2021/12/16 09:12:51;;;;;;;38.47;16.48;;;;;;;;;;5048986;28;20029;-78
2021/12/16 09:15:17;;;;;;;39.83;18.92;;;;;;;;;;5062691;28;20055;-76
2021/12/16 09:17:42;;;;;;;40.88;17.80;;;;;;;;;;5048398;28;20021;-78
2021/12/16 09:20:08;;;;;;;42.53;18.02;;;;;;;;;;5050119;28;20028;-75
2021/12/16 09:22:34;;;;;;;50.42;23.63;;;;;;;;;;5052571;28;20036;-77
2021/12/16 09:25:00;;;;;;;38.70;17.30;;;;;;;;;;5052326;28;20044;-77
2021/12/16 09:27:27;;;;;;;39.13;16.70;;;;;;;;;;5051647;28;20033;-77
2021/12/16 09:29:52;;;;;;;38.92;16.63;;;;;;;;;;5069285;28;20075;-76
2021/12/16 09:32:18;;;;;;;40.85;19.25;;;;;;;;;;5053832;28;20040;-78
2021/12/16 09:34:44;;;;;;;37.45;17.38;;;;;;;;;;5053277;28;20043;-77
2021/12/16 09:37:09;;;;;;;35.47;16.02;;;;;;;;;;5053546;28;20035;-76
2021/12/16 09:39:37;;;;;;;39.05;16.60;;;;;;;;;;5055116;28;20382;-77
2021/12/16 09:42:02;;;;;;;42.03;20.27;;;;;;;;;;5055520;28;20033;-77
2021/12/16 09:44:29;;;;;;;42.33;20.38;;;;;;;;;;5037153;28;20052;-77
2021/12/16 09:46:57;;;;;;;49.15;20.23;;;;;;;;;;5053881;28;20448;-75
2021/12/16 09:49:26;;;;;;;37.80;16.88;;;;;;;;;;5059691;28;20059;-79
2021/12/16 09:51:54;;;;;;;43.47;17.90;;;;;;;;;;5052679;28;20029;-77
2021/12/16 09:54:24;;;;;;;38.85;17.50;;;;;;;;;;5049883;28;20029;-77
2021/12/16 09:56:49;;;;;;;46.55;20.45;;;;;;;;;;5036221;28;20029;-77
2021/12/16 09:59:15;;;;;;;40.50;18.05;;;;;;;;;;5035742;28;20041;-77
2021/12/16 10:01:45;;;;;;;43.45;18.77;;;;;;;;;;5036501;28;20166;-78
2021/12/16 10:04:13;;;;;;;42.17;17.90;;;;;;;;;;5036959;28;20025;-77
2021/12/16 10:06:39;;;;;;;42.33;17.90;;;;;;;;;;5054028;28;20055;-77
2021/12/16 10:09:06;;;;;;;40.83;17.30;;;;;;;;;;5077008;28;20037;-77
2021/12/16 10:11:33;;;;;;;42.28;16.10;;;;;;;;;;5050908;28;20387;-76
2021/12/16 10:14:16;;;;;;;34.15;14.88;;;;;;;;;;5051061;28;20028;-78
2021/12/16 10:19:31;;;;;;;41.70;16.42;;;;;;;;;;5054914;28;20078;-79
2021/12/16 10:22:16;;;;;;;65.88;33.65;;;;;;;;;;5053064;28;20459;-76
2021/12/16 10:24:42;;;;;;;57.47;26.40;;;;;;;;;;5051677;28;20021;-75
2021/12/16 10:27:18;;;;;;;45.70;22.52;;;;;;;;;;5053135;28;20028;-78
2021/12/16 10:29:51;;;;;;;32.95;15.57;;;;;;;;;;5058437;28;20374;-77
2021/12/16 10:32:39;;;;;;;44.42;20.75;;;;;;;;;;5069926;28;20021;-78
2021/12/16 10:35:28;;;;;;;39.78;17.45;;;;;;;;;;5053642;28;20452;-79
2021/12/16 10:37:57;;;;;;;42.00;18.27;;;;;;;;;;5069418;28;20025;-73
2021/12/16 10:40:35;;;;;;;62.03;25.73;;;;;;;;;;5069268;28;20547;-73
2021/12/16 10:43:08;;;;;;;41.67;18.50;;;;;;;;;;5053282;28;20029;-72
2021/12/16 10:45:42;;;;;;;37.53;17.42;;;;;;;;;;5051854;28;20111;-74
2021/12/16 10:48:21;;;;;;;42.58;17.60;;;;;;;;;;5057689;28;20033;-72
2021/12/16 10:51:10;;;;;;;45.03;17.88;;;;;;;;;;5056834;28;20028;-74
2021/12/16 10:54:14;;;;;;;42.33;17.95;;;;;;;;;;5051650;28;20060;-73
2021/12/16 10:57:09;;;;;;;34.53;15.15;;;;;;;;;;4975694;28;20405;-74
2021/12/16 10:59:43;;;;;;;33.33;14.85;;;;;;;;;;5046449;28;20041;-75
2021/12/16 11:02:21;;;;;;;35.45;15.05;;;;;;;;;;5050936;28;20048;-76
2021/12/16 11:05:02;;;;;;;44.15;16.27;;;;;;;;;;5052365;28;20445;-76
2021/12/16 11:07:34;;;;;;;42.75;17.40;;;;;;;;;;5056394;28;20033;-77
2021/12/16 11:10:01;;;;;;;37.63;15.32;;;;;;;;;;5053294;28;20132;-75
2021/12/16 11:12:33;;;;;;;55.28;24.27;;;;;;;;;;5053303;28;20525;-74
2021/12/16 11:15:05;;;;;;;42.25;17.10;;;;;;;;;;5053219;28;20056;-77
2021/12/16 11:17:37;;;;;;;60.17;25.08;;;;;;;;;;5053909;28;20099;-76
2021/12/16 11:20:13;;;;;;;42.10;17.75;;;;;;;;;;5052352;28;20652;-76
2021/12/16 11:22:39;;;;;;;32.90;13.35;;;;;;;;;;5054776;28;20025;-77
2021/12/16 11:25:32;;;;;;;35.10;13.32;;;;;;;;;;5070010;28;20037;-77
2021/12/16 11:28:15;;;;;;;35.05;14.35;;;;;;;;;;5041249;28;20079;-74
2021/12/16 11:30:50;;;;;;;36.42;12.80;;;;;;;;;;5034367;28;20022;-75
2021/12/16 11:33:23;;;;;;;34.67;12.82;;;;;;;;;;5034192;28;20040;-75
2021/12/16 11:35:56;;;;;;;31.40;13.30;;;;;;;;;;5034620;28;20404;-75
2021/12/16 11:38:28;;;;;;;32.60;14.52;;;;;;;;;;5034608;28;20128;-75
2021/12/16 11:40:55;;;;;;;37.22;14.60;;;;;;;;;;5050261;28;20124;-75
2021/12/16 11:43:35;;;;;;;39.17;14.95;;;;;;;;;;5048952;28;20063;-75
2021/12/16 11:46:01;;;;;;;43.83;16.13;;;;;;;;;;5067976;28;20031;-74
2021/12/16 11:48:34;;;;;;;38.78;14.45;;;;;;;;;;5070641;28;20041;-75
2021/12/16 11:51:22;;;;;;;52.03;20.80;;;;;;;;;;5024087;28;20081;-71
2021/12/16 11:53:53;;;;;;;43.50;15.50;;;;;;;;;;5050631;28;20133;-77
2021/12/16 11:56:19;;;;;;;36.28;15.10;;;;;;;;;;5051848;28;20520;-77
2021/12/16 11:58:45;;;;;;;32.63;14.35;;;;;;;;;;5051584;28;20104;-77
2021/12/16 12:01:21;;;;;;;38.92;13.82;;;;;;;;;;5050182;28;20044;-76
2021/12/16 12:03:47;;;;;;;31.27;13.88;;;;;;;;;;5050483;28;20098;-75
2021/12/16 12:06:21;;;;;;;34.95;14.60;;;;;;;;;;5051204;28;20033;-74
2021/12/16 12:08:47;;;;;;;35.10;14.65;;;;;;;;;;5052935;28;20051;-76
2021/12/16 12:11:30;;;;;;;31.95;14.07;;;;;;;;;;5051600;28;20021;-77
2021/12/16 12:14:17;;;;;;;34.75;14.02;;;;;;;;;;5051279;28;20032;-78
2021/12/16 12:16:45;;;;;;;41.65;16.40;;;;;;;;;;5052335;28;20363;-76
2021/12/16 12:19:13;;;;;;;60.17;19.42;;;;;;;;;;5051132;28;20078;-75
2021/12/16 12:21:46;;;;;;;38.13;15.40;;;;;;;;;;5050690;28;20119;-75
2021/12/16 12:24:26;;;;;;;50.22;18.00;;;;;;;;;;5046224;28;20025;-76
2021/12/16 12:27:07;;;;;;;38.72;15.90;;;;;;;;;;5056060;28;20032;-78
2021/12/16 12:29:41;;;;;;;;;;;;;;;;;;5050663;28;20029;-76
2021/12/16 12:32:09;;;;;;;40.33;15.73;;;;;;;;;;5051009;28;19917;-77
2021/12/16 12:34:36;;;;;;;40.58;16.75;;;;;;;;;;5049508;28;20364;-79
2021/12/16 12:37:04;;;;;;;34.70;14.30;;;;;;;;;;5063658;28;20027;-77
2021/12/16 12:39:42;;;;;;;45.50;17.98;;;;;;;;;;5070309;28;20054;-75
2021/12/16 12:42:10;;;;;;;45.10;16.63;;;;;;;;;;5069025;28;20048;-75
2021/12/16 12:44:36;;;;;;;45.58;16.17;;;;;;;;;;5053367;28;20030;-75
2021/12/16 12:47:06;;;;;;;40.00;16.20;;;;;;;;;;5074042;28;20115;-76
2021/12/16 12:49:32;;;;;;;42.75;18.42;;;;;;;;;;5070904;28;20032;-70
2021/12/16 12:52:13;;;;;;;42.58;17.70;;;;;;;;;;5086371;28;20028;-71
2021/12/16 12:54:47;;;;;;;41.30;17.48;;;;;;;;;;5053515;28;20040;-74
2021/12/16 12:57:24;;;;;;;50.38;17.67;;;;;;;;;;5052774;28;20025;-76
2021/12/16 12:59:50;;;;;;;39.05;16.75;;;;;;;;;;5021056;28;20040;-75
2021/12/16 13:02:33;;;;;;;43.85;17.35;;;;;;;;;;5054450;28;20434;-75
2021/12/16 13:05:11;;;;;;;35.83;15.27;;;;;;;;;;5054388;28;20075;-74
2021/12/16 13:07:45;;;;;;;39.97;17.02;;;;;;;;;;5057677;28;20506;-75
2021/12/16 13:10:17;;;;;;;43.25;16.15;;;;;;;;;;5053262;28;20119;-73
2021/12/16 13:13:01;;;;;;;40.15;16.00;;;;;;;;;;5052530;28;20029;-75
2021/12/16 13:15:43;;;;;;;44.03;17.80;;;;;;;;;;5021840;28;20064;-76
2021/12/16 13:28:44;;;;;;;41.03;16.55;;;;;;;;;;5041566;28;20036;-76
2021/12/16 13:31:52;;;;;;;48.42;20.70;;;;;;;;;;5054894;28;20127;-76
2021/12/16 13:34:33;;;;;;;60.95;21.25;;;;;;;;;;5016971;28;20099;-75
2021/12/16 13:37:03;;;;;;;58.13;20.17;;;;;;;;;;5055715;28;20057;-75
2021/12/16 13:39:30;;;;;;;;;;;;;;;;;;4980329;28;1258434;-75
2021/12/16 13:42:09;;;;;;;48.50;19.33;;;;;;;;;;5056475;28;19963;-77
2021/12/16 13:45:04;;;;;;;60.88;21.00;;;;;;;;;;5057647;28;20032;-75
2021/12/16 14:05:19;;;;;;;48.58;19.17;;;;;;;;;;5001360;28;20061;-77
2021/12/16 14:07:58;;;;;;;54.38;21.58;;;;;;;;;;5056667;28;20021;-77
2021/12/16 14:10:49;;;;;;;75.10;29.08;;;;;;;;;;5056228;28;20024;-77
2021/12/16 14:16:31;;;;;;;62.72;23.52;;;;;;;;;;5055828;28;20036;-77
2021/12/16 14:25:32;;;;;;;103.40;46.00;;;;;;;;;;5056193;28;20167;-77
2021/12/16 14:46:44;;;;;;;72.88;27.83;;;;;;;;;;5055638;28;20032;-77
2021/12/16 14:49:10;;;;;;;74.18;29.67;;;;;;;;;;5061247;28;20025;-77
2021/12/16 14:51:36;;;;;;;71.75;27.33;;;;;;;;;;5057158;28;20033;-76
2021/12/16 14:54:01;;;;;;;75.00;28.63;;;;;;;;;;5037868;28;20448;-77
2021/12/16 14:56:30;;;;;;;68.50;27.48;;;;;;;;;;5055695;28;20056;-78
2021/12/16 14:59:00;;;;;;;62.63;23.35;;;;;;;;;;5055321;28;20029;-77
2021/12/16 15:01:27;;;;;;;;;;;;;;;;;;5055807;28;20029;-77
2021/12/16 15:03:54;;;;;;;60.88;22.40;;;;;;;;;;5054111;28;19944;-76
2021/12/16 15:06:29;;;;;;;71.40;29.35;;;;;;;;;;5053992;28;20040;-76
2021/12/16 15:09:26;;;;;;;90.43;40.28;;;;;;;;;;5057310;28;20036;-78
2021/12/16 15:14:48;;;;;;;64.72;26.42;;;;;;;;;;5053488;28;20087;-77
2021/12/16 15:17:37;;;;;;;59.33;24.15;;;;;;;;;;5054826;28;20017;-77
2021/12/16 15:45:17;;;;;;;72.80;28.77;;;;;;;;;;5054561;28;20035;-78
2021/12/16 15:47:45;;;;;;;75.78;28.75;;;;;;;;;;5053139;28;20021;-77
2021/12/16 15:50:11;;;;;;;81.97;31.60;;;;;;;;;;5054401;28;20112;-77
2021/12/16 15:52:45;;;;;;;88.35;34.40;;;;;;;;;;5055923;28;20487;-78
2021/12/16 15:55:15;;;;;;;85.18;32.13;;;;;;;;;;5054295;28;20035;-78
2021/12/16 15:57:40;;;;;;;77.10;30.25;;;;;;;;;;5053998;28;20094;-77
2021/12/16 16:00:12;;;;;;;82.45;32.97;;;;;;;;;;5054278;28;20025;-77
2021/12/16 16:02:38;;;;;;;100.38;39.08;;;;;;;;;;5053049;28;20590;-77
2021/12/16 16:05:03;;;;;;;116.75;44.00;;;;;;;;;;5054188;28;20104;-77
2021/12/16 16:07:33;;;;;;;112.40;40.92;;;;;;;;;;5054215;28;20115;-78
2021/12/16 16:09:59;;;;;;;98.78;36.92;;;;;;;;;;5054173;28;20025;-77
2021/12/16 16:12:27;;;;;;;95.60;34.15;;;;;;;;;;5068025;28;20009;-78
2021/12/16 16:14:59;;;;;;;77.00;29.67;;;;;;;;;;5054952;28;20091;-77
2021/12/16 16:17:25;;;;;;;75.22;29.50;;;;;;;;;;5054005;28;20029;-78
2021/12/16 16:19:52;;;;;;;81.03;30.27;;;;;;;;;;5054211;28;20029;-78
2021/12/16 16:22:18;;;;;;;73.47;27.85;;;;;;;;;;5052830;28;20075;-77
2021/12/16 16:24:47;;;;;;;90.60;36.17;;;;;;;;;;5052861;28;20423;-78
2021/12/16 16:27:17;;;;;;;122.07;45.85;;;;;;;;;;5052493;28;20372;-77
2021/12/16 16:29:43;;;;;;;120.32;46.28;;;;;;;;;;5052988;28;20051;-77
2021/12/16 16:32:09;;;;;;;125.13;50.40;;;;;;;;;;5038859;28;20031;-77
2021/12/16 16:34:46;;;;;;;138.68;56.20;;;;;;;;;;5061667;28;20037;-76
2021/12/16 16:37:11;;;;;;;132.07;53.88;;;;;;;;;;5052842;28;20048;-76
2021/12/16 16:39:39;;;;;;;138.38;56.67;;;;;;;;;;5053783;28;20472;-76
2021/12/16 16:42:08;;;;;;;126.32;52.63;;;;;;;;;;5052651;28;20028;-75
2021/12/16 16:44:34;;;;;;;131.05;51.85;;;;;;;;;;5053818;28;20036;-76
2021/12/16 16:47:13;;;;;;;119.97;46.13;;;;;;;;;;5054209;28;20029;-76
2021/12/16 16:49:49;;;;;;;107.38;44.42;;;;;;;;;;5036555;28;20375;-78
2021/12/16 16:52:30;;;;;;;113.95;43.00;;;;;;;;;;5052388;28;20032;-78
2021/12/16 16:55:14;;;;;;;110.30;41.17;;;;;;;;;;5055576;28;20044;-77
2021/12/16 16:57:54;;;;;;;81.15;32.17;;;;;;;;;;5036912;28;20479;-76
2021/12/16 17:00:33;;;;;;;91.75;35.55;;;;;;;;;;5037912;28;20028;-76
2021/12/16 17:03:01;;;;;;;94.75;38.38;;;;;;;;;;5053797;28;20040;-76
2021/12/16 17:05:33;;;;;;;107.07;39.35;;;;;;;;;;5035942;28;20383;-76
2021/12/16 17:08:03;;;;;;;111.07;40.90;;;;;;;;;;5053620;28;20032;-75
2021/12/16 17:10:31;;;;;;;110.38;39.75;;;;;;;;;;5052061;28;20036;-76
2021/12/16 17:13:25;;;;;;;108.78;39.35;;;;;;;;;;5052541;28;20372;-75
2021/12/16 17:18:31;;;;;;;106.55;42.83;;;;;;;;;;5052325;28;20104;-77
2021/12/16 17:21:01;;;;;;;101.63;40.72;;;;;;;;;;5053462;28;20031;-76
2021/12/16 17:23:32;;;;;;;115.57;45.33;;;;;;;;;;5052197;28;20025;-76
2021/12/16 17:25:59;;;;;;;112.30;41.25;;;;;;;;;;5051880;28;20700;-76
2021/12/16 17:28:29;;;;;;;111.38;40.42;;;;;;;;;;5053679;28;20022;-76
2021/12/16 17:30:56;;;;;;;117.05;43.03;;;;;;;;;;5036028;28;20064;-76
2021/12/16 17:33:29;;;;;;;109.50;41.63;;;;;;;;;;5052235;28;20095;-76
2021/12/16 17:35:57;;;;;;;117.72;43.92;;;;;;;;;;5054255;28;20083;-76
2021/12/16 17:38:24;;;;;;;119.15;46.08;;;;;;;;;;5053186;28;20036;-77
2021/12/16 17:41:07;;;;;;;117.22;44.58;;;;;;;;;;5018958;28;20041;-77
2021/12/16 17:43:42;;;;;;;126.55;47.60;;;;;;;;;;5039204;28;20372;-76
2021/12/16 17:46:12;;;;;;;132.27;48.50;;;;;;;;;;5039230;28;20028;-76
2021/12/16 17:48:40;;;;;;;121.70;45.85;;;;;;;;;;5039732;28;20073;-75
2021/12/16 17:51:24;;;;;;;132.98;48.60;;;;;;;;;;5039345;28;20029;-76
2021/12/16 17:53:55;;;;;;;145.93;50.25;;;;;;;;;;5038785;28;20040;-76
2021/12/16 17:56:21;;;;;;;154.80;56.08;;;;;;;;;;5025445;28;20032;-76
2021/12/16 17:58:51;;;;;;;187.85;67.53;;;;;;;;;;5057330;28;20028;-76
2021/12/16 18:01:25;;;;;;;196.35;70.07;;;;;;;;;;5055431;28;20086;-76
2021/12/16 18:04:01;;;;;;;167.25;60.50;;;;;;;;;;5056492;28;20033;-75
2021/12/16 18:06:30;;;;;;;148.48;52.35;;;;;;;;;;5056511;28;20029;-76
2021/12/16 18:09:03;;;;;;;139.07;51.95;;;;;;;;;;5056411;28;20028;-76
2021/12/16 18:11:30;;;;;;;140.05;52.28;;;;;;;;;;5056294;28;20040;-76
2021/12/16 18:14:00;;;;;;;117.80;46.15;;;;;;;;;;5055078;28;20086;-76
2021/12/16 18:16:32;;;;;;;119.22;48.28;;;;;;;;;;5055611;28;20330;-76
2021/12/16 18:18:59;;;;;;;122.10;48.15;;;;;;;;;;5062767;28;20029;-76
2021/12/16 18:21:24;;;;;;;117.20;46.85;;;;;;;;;;5055303;28;20029;-76
2021/12/16 18:23:53;;;;;;;110.82;45.53;;;;;;;;;;5055819;28;20082;-76
2021/12/16 18:26:18;;;;;;;108.70;44.92;;;;;;;;;;5039060;28;20029;-76
2021/12/16 18:28:47;;;;;;;104.53;45.15;;;;;;;;;;5056253;28;20071;-76